sensor_id;sensor_type;location;lat;lon;timestamp;pressure;altitude;pressure_sealevel;temperature;humidity
68712;BME280;55690;51.566;19.198;2023-03-15T00:01:27;100367.51;;;7.51;84.62
68712;BME280;55690;51.566;19.198;2023-03-15T00:05:33;100380.96;;;7.65;84.48
68712;BME280;55690;51.566;19.198;2023-03-15T00:09:39;100385.18;;;6.74;86.71
68712;BME280;55690;51.566;19.198;2023-03-15T00:13:45;100385.56;;;7.23;86.39
68712;BME280;55690;51.566;19.198;2023-03-15T00:17:51;100409.50;;;7.42;85.70
68712;BME280;55690;51.566;19.198;2023-03-15T00:21:58;100421.36;;;7.13;86.81
68712;BME280;55690;51.566;19.198;2023-03-15T00:26:04;100424.66;;;7.04;86.75
68712;BME280;55690;51.566;19.198;2023-03-15T00:30:10;100441.31;;;7.24;85.74
68712;BME280;55690;51.566;19.198;2023-03-15T00:34:17;100438.61;;;7.24;85.81
68712;BME280;55690;51.566;19.198;2023-03-15T00:38:26;100455.77;;;7.64;85.36
68712;BME280;55690;51.566;19.198;2023-03-15T00:42:28;100463.08;;;7.89;84.68
68712;BME280;55690;51.566;19.198;2023-03-15T00:46:35;100492.38;;;7.42;85.52
68712;BME280;55690;51.566;19.198;2023-03-15T00:50:41;100505.36;;;7.22;85.59
68712;BME280;55690;51.566;19.198;2023-03-15T00:54:51;100530.30;;;7.40;85.98
68712;BME280;55690;51.566;19.198;2023-03-15T00:58:53;100544.27;;;7.61;85.63
68712;BME280;55690;51.566;19.198;2023-03-15T01:02:59;100556.16;;;7.44;84.93
68712;BME280;55690;51.566;19.198;2023-03-15T01:07:06;100560.10;;;7.53;85.30
68712;BME280;55690;51.566;19.198;2023-03-15T01:11:15;100549.24;;;7.26;85.80
68712;BME280;55690;51.566;19.198;2023-03-15T01:15:18;100564.75;;;7.08;86.35
68712;BME280;55690;51.566;19.198;2023-03-15T01:19:24;100563.17;;;7.75;84.48
68712;BME280;55690;51.566;19.198;2023-03-15T01:23:30;100557.38;;;7.67;84.22
68712;BME280;55690;51.566;19.198;2023-03-15T01:27:36;100572.46;;;7.57;83.60
68712;BME280;55690;51.566;19.198;2023-03-15T01:31:43;100573.26;;;7.86;83.22
68712;BME280;55690;51.566;19.198;2023-03-15T01:36:02;100577.58;;;7.47;83.40
68712;BME280;55690;51.566;19.198;2023-03-15T01:40:06;100585.52;;;7.36;83.87
68712;BME280;55690;51.566;19.198;2023-03-15T01:44:16;100593.98;;;7.44;83.02
68712;BME280;55690;51.566;19.198;2023-03-15T01:48:18;100600.46;;;7.27;83.33
68712;BME280;55690;51.566;19.198;2023-03-15T01:52:23;100616.38;;;7.32;82.95
68712;BME280;55690;51.566;19.198;2023-03-15T01:56:26;100620.61;;;7.64;82.40
68712;BME280;55690;51.566;19.198;2023-03-15T02:00:29;100654.38;;;7.29;82.83
68712;BME280;55690;51.566;19.198;2023-03-15T02:04:41;100657.29;;;7.68;82.22
68712;BME280;55690;51.566;19.198;2023-03-15T02:08:53;100668.40;;;7.78;81.36
68712;BME280;55690;51.566;19.198;2023-03-15T02:12:57;100670.77;;;7.83;81.09
68712;BME280;55690;51.566;19.198;2023-03-15T02:16:59;100681.32;;;7.73;81.31
68712;BME280;55690;51.566;19.198;2023-03-15T02:29:29;100737.02;;;7.17;82.01
68712;BME280;55690;51.566;19.198;2023-03-15T02:33:35;100748.74;;;7.46;80.29
68712;BME280;55690;51.566;19.198;2023-03-15T02:37:39;100762.81;;;7.37;80.56
68712;BME280;55690;51.566;19.198;2023-03-15T02:41:52;100762.60;;;7.70;79.68
68712;BME280;55690;51.566;19.198;2023-03-15T02:45:55;100755.33;;;7.56;79.48
68712;BME280;55690;51.566;19.198;2023-03-15T02:49:56;100752.38;;;7.75;79.58
68712;BME280;55690;51.566;19.198;2023-03-15T02:53:58;100775.58;;;7.49;80.09
68712;BME280;55690;51.566;19.198;2023-03-15T02:58:00;100784.90;;;7.88;78.33
68712;BME280;55690;51.566;19.198;2023-03-15T03:02:02;100808.17;;;7.76;79.24
68712;BME280;55690;51.566;19.198;2023-03-15T03:06:05;100799.20;;;8.04;78.15
68712;BME280;55690;51.566;19.198;2023-03-15T03:10:14;100793.29;;;7.83;78.44
68712;BME280;55690;51.566;19.198;2023-03-15T03:14:17;100808.27;;;7.75;78.62
68712;BME280;55690;51.566;19.198;2023-03-15T03:18:27;100807.23;;;7.47;78.98
68712;BME280;55690;51.566;19.198;2023-03-15T03:22:29;100809.41;;;7.85;78.22
68712;BME280;55690;51.566;19.198;2023-03-15T03:26:36;100810.17;;;7.28;79.50
68712;BME280;55690;51.566;19.198;2023-03-15T03:30:42;100813.02;;;7.99;78.22
68712;BME280;55690;51.566;19.198;2023-03-15T03:34:48;100831.13;;;7.39;79.80
68712;BME280;55690;51.566;19.198;2023-03-15T03:38:55;100840.84;;;7.27;79.68
68712;BME280;55690;51.566;19.198;2023-03-15T03:43:00;100838.52;;;7.51;78.79
68712;BME280;55690;51.566;19.198;2023-03-15T03:47:07;100840.43;;;7.79;77.96
68712;BME280;55690;51.566;19.198;2023-03-15T03:51:13;100845.59;;;7.38;78.33
68712;BME280;55690;51.566;19.198;2023-03-15T03:55:19;100857.05;;;7.57;78.26
68712;BME280;55690;51.566;19.198;2023-03-15T03:59:25;100863.08;;;7.01;79.56
68712;BME280;55690;51.566;19.198;2023-03-15T04:03:32;100875.30;;;6.92;79.68
68712;BME280;55690;51.566;19.198;2023-03-15T04:07:38;100872.95;;;6.86;80.15
68712;BME280;55690;51.566;19.198;2023-03-15T04:11:44;100883.13;;;6.81;79.97
68712;BME280;55690;51.566;19.198;2023-03-15T04:15:50;100892.60;;;7.04;80.36
68712;BME280;55690;51.566;19.198;2023-03-15T04:19:57;100887.29;;;7.18;79.83
68712;BME280;55690;51.566;19.198;2023-03-15T04:24:03;100888.91;;;7.37;78.79
68712;BME280;55690;51.566;19.198;2023-03-15T04:28:09;100903.78;;;7.59;78.05
68712;BME280;55690;51.566;19.198;2023-03-15T04:32:15;100915.78;;;7.24;78.82
68712;BME280;55690;51.566;19.198;2023-03-15T04:36:22;100912.16;;;7.39;78.57
68712;BME280;55690;51.566;19.198;2023-03-15T04:40:27;100912.16;;;7.39;78.20
68712;BME280;55690;51.566;19.198;2023-03-15T04:44:33;100910.16;;;7.43;78.36
68712;BME280;55690;51.566;19.198;2023-03-15T04:48:39;100917.34;;;7.28;78.63
68712;BME280;55690;51.566;19.198;2023-03-15T04:52:46;100929.01;;;7.13;79.72
68712;BME280;55690;51.566;19.198;2023-03-15T04:56:52;100940.16;;;7.22;79.19
68712;BME280;55690;51.566;19.198;2023-03-15T05:00:58;100940.78;;;7.12;79.55
68712;BME280;55690;51.566;19.198;2023-03-15T05:05:08;100937.47;;;6.91;79.93
68712;BME280;55690;51.566;19.198;2023-03-15T05:09:10;100953.42;;;7.27;79.33
68712;BME280;55690;51.566;19.198;2023-03-15T05:13:18;100959.32;;;6.86;80.07
68712;BME280;55690;51.566;19.198;2023-03-15T05:17:23;100953.13;;;6.84;79.92
68712;BME280;55690;51.566;19.198;2023-03-15T05:21:29;100956.28;;;6.92;79.41
68712;BME280;55690;51.566;19.198;2023-03-15T05:25:35;100968.29;;;6.87;79.78
68712;BME280;55690;51.566;19.198;2023-03-15T05:29:41;100986.94;;;6.91;79.21
68712;BME280;55690;51.566;19.198;2023-03-15T05:33:47;100986.88;;;7.24;78.72
68712;BME280;55690;51.566;19.198;2023-03-15T05:37:54;100989.55;;;7.09;78.82
68712;BME280;55690;51.566;19.198;2023-03-15T05:42:00;100998.16;;;6.99;79.13
68712;BME280;55690;51.566;19.198;2023-03-15T05:46:06;101001.55;;;6.87;79.97
68712;BME280;55690;51.566;19.198;2023-03-15T05:50:12;101001.34;;;7.23;78.91
68712;BME280;55690;51.566;19.198;2023-03-15T05:54:18;101020.13;;;7.09;79.32
68712;BME280;55690;51.566;19.198;2023-03-15T05:58:24;101006.94;;;7.36;78.36
68712;BME280;55690;51.566;19.198;2023-03-15T06:02:31;101001.02;;;6.96;78.77
68712;BME280;55690;51.566;19.198;2023-03-15T06:06:37;101006.21;;;7.17;78.35
68712;BME280;55690;51.566;19.198;2023-03-15T06:10:43;101016.88;;;6.87;78.77
68712;BME280;55690;51.566;19.198;2023-03-15T06:14:49;101027.30;;;7.42;78.07
68712;BME280;55690;51.566;19.198;2023-03-15T06:18:55;101034.36;;;6.80;78.87
68712;BME280;55690;51.566;19.198;2023-03-15T06:23:02;101045.16;;;6.80;79.14
68712;BME280;55690;51.566;19.198;2023-03-15T06:27:08;101068.95;;;7.22;77.69
68712;BME280;55690;51.566;19.198;2023-03-15T06:31:14;101078.49;;;7.12;78.53
68712;BME280;55690;51.566;19.198;2023-03-15T06:35:20;101095.95;;;6.89;78.68
68712;BME280;55690;51.566;19.198;2023-03-15T06:39:26;101091.34;;;7.24;78.74
68712;BME280;55690;51.566;19.198;2023-03-15T06:43:33;101087.15;;;6.68;78.95
68712;BME280;55690;51.566;19.198;2023-03-15T06:47:39;101088.80;;;6.88;79.05
68712;BME280;55690;51.566;19.198;2023-03-15T06:51:45;101085.69;;;7.28;77.58
68712;BME280;55690;51.566;19.198;2023-03-15T06:55:51;101079.70;;;7.06;79.06
68712;BME280;55690;51.566;19.198;2023-03-15T06:59:57;101085.32;;;6.86;77.79
68712;BME280;55690;51.566;19.198;2023-03-15T07:04:03;101090.88;;;7.16;77.74
68712;BME280;55690;51.566;19.198;2023-03-15T07:08:09;101098.24;;;7.29;77.90
68712;BME280;55690;51.566;19.198;2023-03-15T07:12:16;101108.52;;;7.39;77.42
68712;BME280;55690;51.566;19.198;2023-03-15T07:16:22;101122.30;;;7.34;77.32
68712;BME280;55690;51.566;19.198;2023-03-15T07:20:28;101128.86;;;7.13;76.91
68712;BME280;55690;51.566;19.198;2023-03-15T07:24:34;101141.97;;;7.85;76.38
68712;BME280;55690;51.566;19.198;2023-03-15T07:28:40;101144.57;;;7.22;76.33
68712;BME280;55690;51.566;19.198;2023-03-15T07:32:47;101145.73;;;8.14;74.71
68712;BME280;55690;51.566;19.198;2023-03-15T07:36:53;101152.18;;;8.43;75.15
68712;BME280;55690;51.566;19.198;2023-03-15T07:41:04;101167.98;;;8.34;75.02
68712;BME280;55690;51.566;19.198;2023-03-15T07:45:07;101173.28;;;7.89;74.55
68712;BME280;55690;51.566;19.198;2023-03-15T07:49:11;101172.45;;;7.55;75.02
68712;BME280;55690;51.566;19.198;2023-03-15T07:53:17;101182.01;;;8.25;74.60
68712;BME280;55690;51.566;19.198;2023-03-15T07:57:24;101175.65;;;7.95;74.85
68712;BME280;55690;51.566;19.198;2023-03-15T08:01:30;101184.18;;;7.87;73.72
68712;BME280;55690;51.566;19.198;2023-03-15T08:05:36;101200.62;;;8.16;74.47
68712;BME280;55690;51.566;19.198;2023-03-15T08:09:42;101188.31;;;8.10;74.26
68712;BME280;55690;51.566;19.198;2023-03-15T08:13:48;101207.44;;;8.54;74.57
68712;BME280;55690;51.566;19.198;2023-03-15T08:18:01;101215.98;;;8.15;73.55
68712;BME280;55690;51.566;19.198;2023-03-15T08:22:03;101222.98;;;8.35;73.71
68712;BME280;55690;51.566;19.198;2023-03-15T08:26:07;101230.91;;;8.22;73.11
68712;BME280;55690;51.566;19.198;2023-03-15T08:30:14;101233.28;;;8.60;72.14
68712;BME280;55690;51.566;19.198;2023-03-15T08:34:20;101225.76;;;9.25;71.67
68712;BME280;55690;51.566;19.198;2023-03-15T08:38:26;101216.88;;;9.37;70.54
68712;BME280;55690;51.566;19.198;2023-03-15T08:42:32;101246.93;;;9.18;70.87
68712;BME280;55690;51.566;19.198;2023-03-15T08:46:38;101254.83;;;9.37;70.19
68712;BME280;55690;51.566;19.198;2023-03-15T08:50:44;101248.67;;;9.63;70.32
68712;BME280;55690;51.566;19.198;2023-03-15T08:54:50;101242.40;;;9.77;68.09
68712;BME280;55690;51.566;19.198;2023-03-15T08:58:57;101251.97;;;10.11;68.04
68712;BME280;55690;51.566;19.198;2023-03-15T09:03:03;101257.49;;;9.53;68.82
68712;BME280;55690;51.566;19.198;2023-03-15T09:07:09;101257.90;;;9.89;67.80
68712;BME280;55690;51.566;19.198;2023-03-15T09:11:15;101284.16;;;9.89;68.33
68712;BME280;55690;51.566;19.198;2023-03-15T09:15:21;101283.18;;;10.18;67.95
68712;BME280;55690;51.566;19.198;2023-03-15T09:19:27;101300.63;;;9.86;68.12
68712;BME280;55690;51.566;19.198;2023-03-15T09:23:33;101301.20;;;10.05;68.71
68712;BME280;55690;51.566;19.198;2023-03-15T09:27:40;101293.45;;;10.13;66.14
68712;BME280;55690;51.566;19.198;2023-03-15T09:31:46;101304.39;;;9.97;65.82
68712;BME280;55690;51.566;19.198;2023-03-15T09:35:52;101298.63;;;10.32;66.73
68712;BME280;55690;51.566;19.198;2023-03-15T09:39:58;101294.95;;;11.01;65.57
68712;BME280;55690;51.566;19.198;2023-03-15T09:48:24;101310.28;;;10.75;66.06
68712;BME280;55690;51.566;19.198;2023-03-15T09:52:41;101305.11;;;11.12;65.02
68712;BME280;55690;51.566;19.198;2023-03-15T10:01:07;101322.63;;;10.93;64.77
68712;BME280;55690;51.566;19.198;2023-03-15T10:05:38;101322.63;;;10.93;64.81
68712;BME280;55690;51.566;19.198;2023-03-15T10:09:31;101309.36;;;11.16;63.79
68712;BME280;55690;51.566;19.198;2023-03-15T10:18:05;101305.58;;;9.93;63.41
68712;BME280;55690;51.566;19.198;2023-03-15T10:22:17;101305.46;;;10.52;64.43
68712;BME280;55690;51.566;19.198;2023-03-15T10:26:30;101323.88;;;10.18;63.74
68712;BME280;55690;51.566;19.198;2023-03-15T10:33:28;101328.73;;;10.13;65.04
68712;BME280;55690;51.566;19.198;2023-03-15T10:37:34;101330.38;;;9.87;65.05
68712;BME280;55690;51.566;19.198;2023-03-15T10:41:39;101331.90;;;9.77;64.74
68712;BME280;55690;51.566;19.198;2023-03-15T10:45:41;101327.22;;;10.23;65.83
68712;BME280;55690;51.566;19.198;2023-03-15T10:49:44;101326.94;;;10.28;64.92
68712;BME280;55690;51.566;19.198;2023-03-15T10:58:28;101319.98;;;10.79;63.65
68712;BME280;55690;51.566;19.198;2023-03-15T11:02:22;101320.59;;;10.56;63.60
68712;BME280;55690;51.566;19.198;2023-03-15T11:06:26;101321.40;;;10.29;62.30
68712;BME280;55690;51.566;19.198;2023-03-15T11:10:33;101320.38;;;10.02;63.22
68712;BME280;55690;51.566;19.198;2023-03-15T11:14:46;101322.23;;;9.87;64.19
68712;BME280;55690;51.566;19.198;2023-03-15T11:18:51;101319.41;;;10.03;64.92
68712;BME280;55690;51.566;19.198;2023-03-15T11:22:56;101318.30;;;10.21;63.65
68712;BME280;55690;51.566;19.198;2023-03-15T11:27:02;101323.20;;;10.00;63.62
68712;BME280;55690;51.566;19.198;2023-03-15T11:31:04;101320.10;;;10.49;63.92
68712;BME280;55690;51.566;19.198;2023-03-15T11:35:17;101324.18;;;10.14;63.21
68712;BME280;55690;51.566;19.198;2023-03-15T11:39:27;101332.80;;;9.92;63.83
68712;BME280;55690;51.566;19.198;2023-03-15T11:43:40;101330.05;;;9.78;63.58
68712;BME280;55690;51.566;19.198;2023-03-15T11:47:50;101335.90;;;9.56;62.87
68712;BME280;55690;51.566;19.198;2023-03-15T11:51:54;101349.13;;;9.76;63.43
68712;BME280;55690;51.566;19.198;2023-03-15T11:56:18;101327.02;;;10.26;62.81
68712;BME280;55690;51.566;19.198;2023-03-15T12:04:41;101337.79;;;10.28;61.94
68712;BME280;55690;51.566;19.198;2023-03-15T12:08:47;101337.73;;;10.14;62.67
68712;BME280;55690;51.566;19.198;2023-03-15T12:12:58;101336.23;;;10.38;61.69
68712;BME280;55690;51.566;19.198;2023-03-15T12:21:19;101331.17;;;10.46;62.67
68712;BME280;55690;51.566;19.198;2023-03-15T12:25:30;101336.15;;;10.40;62.33
68712;BME280;55690;51.566;19.198;2023-03-15T12:29:34;101328.42;;;10.75;61.85
68712;BME280;55690;51.566;19.198;2023-03-15T12:33:46;101343.86;;;10.60;61.10
68712;BME280;55690;51.566;19.198;2023-03-15T12:37:51;101342.42;;;10.95;60.18
68712;BME280;55690;51.566;19.198;2023-03-15T12:41:53;101341.75;;;10.92;60.12
68712;BME280;55690;51.566;19.198;2023-03-15T12:45:55;101346.52;;;10.88;60.08
68712;BME280;55690;51.566;19.198;2023-03-15T12:50:33;101352.53;;;10.38;59.72
68712;BME280;55690;51.566;19.198;2023-03-15T12:54:10;101363.98;;;10.84;60.19
68712;BME280;55690;51.566;19.198;2023-03-15T12:58:16;101371.51;;;10.66;59.62
68712;BME280;55690;51.566;19.198;2023-03-15T13:02:25;101383.74;;;10.31;58.65
68712;BME280;55690;51.566;19.198;2023-03-15T13:15:06;101381.52;;;11.07;60.33
68712;BME280;55690;51.566;19.198;2023-03-15T13:23:28;101385.87;;;10.54;60.49
68712;BME280;55690;51.566;19.198;2023-03-15T13:31:44;101402.79;;;10.86;60.01
68712;BME280;55690;51.566;19.198;2023-03-15T13:35:54;101409.22;;;10.43;59.31
68712;BME280;55690;51.566;19.198;2023-03-15T13:40:00;101407.49;;;10.70;57.75
68712;BME280;55690;51.566;19.198;2023-03-15T13:44:06;101404.97;;;10.67;57.85
68712;BME280;55690;51.566;19.198;2023-03-15T13:48:11;101419.11;;;10.44;57.26
68712;BME280;55690;51.566;19.198;2023-03-15T13:52:13;101415.05;;;10.79;57.33
68712;BME280;55690;51.566;19.198;2023-03-15T13:56:17;101427.95;;;10.47;56.56
68712;BME280;55690;51.566;19.198;2023-03-15T14:00:21;101418.55;;;10.81;56.50
68712;BME280;55690;51.566;19.198;2023-03-15T14:04:24;101425.16;;;10.77;55.91
68712;BME280;55690;51.566;19.198;2023-03-15T14:08:30;101427.84;;;11.32;55.90
68712;BME280;55690;51.566;19.198;2023-03-15T14:12:33;101419.44;;;11.50;55.60
68712;BME280;55690;51.566;19.198;2023-03-15T14:16:45;101426.63;;;11.51;55.45
68712;BME280;55690;51.566;19.198;2023-03-15T14:25:01;101438.49;;;11.09;56.93
68712;BME280;55690;51.566;19.198;2023-03-15T14:29:06;101447.73;;;10.49;57.05
68712;BME280;55690;51.566;19.198;2023-03-15T14:33:22;101441.35;;;10.79;56.92
68712;BME280;55690;51.566;19.198;2023-03-15T14:41:39;101446.59;;;10.39;57.34
68712;BME280;55690;51.566;19.198;2023-03-15T14:45:43;101443.16;;;10.50;58.86
68712;BME280;55690;51.566;19.198;2023-03-15T14:49:45;101445.58;;;10.40;59.19
68712;BME280;55690;51.566;19.198;2023-03-15T14:53:52;101443.45;;;10.45;59.10
68712;BME280;55690;51.566;19.198;2023-03-15T14:57:55;101450.76;;;10.73;58.89
68712;BME280;55690;51.566;19.198;2023-03-15T15:01:58;101453.75;;;10.10;59.66
68712;BME280;55690;51.566;19.198;2023-03-15T15:06:03;101449.20;;;9.81;60.20
68712;BME280;55690;51.566;19.198;2023-03-15T15:10:06;101455.77;;;10.07;60.01
68712;BME280;55690;51.566;19.198;2023-03-15T15:14:14;101458.69;;;10.33;60.60
68712;BME280;55690;51.566;19.198;2023-03-15T15:18:16;101468.09;;;10.42;60.40
68712;BME280;55690;51.566;19.198;2023-03-15T15:22:18;101470.81;;;10.12;61.24
68712;BME280;55690;51.566;19.198;2023-03-15T15:26:23;101461.23;;;10.65;59.80
68712;BME280;55690;51.566;19.198;2023-03-15T15:30:26;101466.86;;;10.62;60.06
68712;BME280;55690;51.566;19.198;2023-03-15T15:34:31;101469.73;;;10.30;60.64
68712;BME280;55690;51.566;19.198;2023-03-15T15:38:34;101462.27;;;10.48;60.05
68712;BME280;55690;51.566;19.198;2023-03-15T15:42:40;101466.24;;;10.28;61.21
68712;BME280;55690;51.566;19.198;2023-03-15T15:46:41;101477.32;;;10.54;61.00
68712;BME280;55690;51.566;19.198;2023-03-15T15:50:43;101466.45;;;10.54;60.77
68712;BME280;55690;51.566;19.198;2023-03-15T15:54:45;101487.59;;;10.35;61.48
68712;BME280;55690;51.566;19.198;2023-03-15T15:58:47;101480.65;;;10.73;61.82
68712;BME280;55690;51.566;19.198;2023-03-15T16:02:50;101474.80;;;10.93;61.01
68712;BME280;55690;51.566;19.198;2023-03-15T16:06:59;101480.81;;;10.84;60.53
68712;BME280;55690;51.566;19.198;2023-03-15T16:11:02;101488.02;;;10.71;61.12
68712;BME280;55690;51.566;19.198;2023-03-15T16:15:06;101494.58;;;10.53;61.88
68712;BME280;55690;51.566;19.198;2023-03-15T16:19:08;101504.76;;;10.35;61.26
68712;BME280;55690;51.566;19.198;2023-03-15T16:23:19;101499.19;;;10.07;62.91
68712;BME280;55690;51.566;19.198;2023-03-15T16:27:23;101514.14;;;10.44;61.80
68712;BME280;55690;51.566;19.198;2023-03-15T16:31:26;101516.23;;;9.94;60.73
68712;BME280;55690;51.566;19.198;2023-03-15T16:35:33;101508.66;;;9.99;60.58
68712;BME280;55690;51.566;19.198;2023-03-15T16:39:35;101523.66;;;9.91;61.28
68712;BME280;55690;51.566;19.198;2023-03-15T16:43:38;101527.83;;;9.96;61.43
68712;BME280;55690;51.566;19.198;2023-03-15T16:47:40;101531.11;;;10.33;62.02
68712;BME280;55690;51.566;19.198;2023-03-15T16:51:45;101537.36;;;10.19;62.74
68712;BME280;55690;51.566;19.198;2023-03-15T16:55:47;101545.14;;;10.25;62.54
68712;BME280;55690;51.566;19.198;2023-03-15T16:59:49;101542.70;;;10.05;62.76
68712;BME280;55690;51.566;19.198;2023-03-15T17:03:51;101549.51;;;10.12;62.76
68712;BME280;55690;51.566;19.198;2023-03-15T17:07:54;101561.91;;;9.86;64.02
68712;BME280;55690;51.566;19.198;2023-03-15T17:11:55;101563.83;;;9.68;64.81
68712;BME280;55690;51.566;19.198;2023-03-15T17:15:58;101573.80;;;9.37;65.08
68712;BME280;55690;51.566;19.198;2023-03-15T17:20:01;101550.24;;;9.06;65.48
68712;BME280;55690;51.566;19.198;2023-03-15T17:24:13;101591.05;;;9.03;65.88
68712;BME280;55690;51.566;19.198;2023-03-15T17:28:14;101590.33;;;8.99;66.41
68712;BME280;55690;51.566;19.198;2023-03-15T17:32:16;101598.55;;;8.80;66.84
68712;BME280;55690;51.566;19.198;2023-03-15T17:36:20;101598.47;;;8.82;66.40
68712;BME280;55690;51.566;19.198;2023-03-15T17:40:28;101597.27;;;8.87;65.95
68712;BME280;55690;51.566;19.198;2023-03-15T17:44:30;101609.06;;;8.69;66.36
68712;BME280;55690;51.566;19.198;2023-03-15T17:48:32;101619.10;;;8.67;65.87
68712;BME280;55690;51.566;19.198;2023-03-15T17:52:33;101627.78;;;8.74;65.79
68712;BME280;55690;51.566;19.198;2023-03-15T17:56:34;101623.24;;;8.74;65.08
68712;BME280;55690;51.566;19.198;2023-03-15T18:00:36;101629.46;;;8.76;64.88
68712;BME280;55690;51.566;19.198;2023-03-15T18:04:39;101632.08;;;8.78;64.86
68712;BME280;55690;51.566;19.198;2023-03-15T18:08:46;101633.83;;;8.08;65.23
68712;BME280;55690;51.566;19.198;2023-03-15T18:12:51;101649.62;;;8.17;65.89
68712;BME280;55690;51.566;19.198;2023-03-15T18:16:57;101639.59;;;8.19;66.13
68712;BME280;55690;51.566;19.198;2023-03-15T18:21:04;101647.91;;;8.33;65.98
68712;BME280;55690;51.566;19.198;2023-03-15T18:29:22;101654.27;;;8.32;66.64
68712;BME280;55690;51.566;19.198;2023-03-15T18:33:24;101659.95;;;8.26;67.31
68712;BME280;55690;51.566;19.198;2023-03-15T18:37:28;101660.60;;;8.31;67.11
68712;BME280;55690;51.566;19.198;2023-03-15T18:41:35;101650.73;;;8.49;66.71
68712;BME280;55690;51.566;19.198;2023-03-15T18:45:41;101654.16;;;8.53;66.47
68712;BME280;55690;51.566;19.198;2023-03-15T18:49:47;101657.10;;;8.48;66.89
68712;BME280;55690;51.566;19.198;2023-03-15T18:53:54;101647.78;;;8.54;66.93
68712;BME280;55690;51.566;19.198;2023-03-15T18:57:59;101661.96;;;8.23;67.43
68712;BME280;55690;51.566;19.198;2023-03-15T19:02:07;101674.18;;;8.13;67.88
68712;BME280;55690;51.566;19.198;2023-03-15T19:06:12;101670.38;;;8.17;67.53
68712;BME280;55690;51.566;19.198;2023-03-15T19:10:19;101673.72;;;8.41;66.04
68712;BME280;55690;51.566;19.198;2023-03-15T19:14:24;101685.91;;;7.76;68.23
68712;BME280;55690;51.566;19.198;2023-03-15T19:18:30;101696.69;;;7.57;68.80
68712;BME280;55690;51.566;19.198;2023-03-15T19:22:37;101701.35;;;7.53;68.37
68712;BME280;55690;51.566;19.198;2023-03-15T19:26:43;101705.15;;;7.49;68.54
68712;BME280;55690;51.566;19.198;2023-03-15T19:30:49;101711.11;;;7.37;69.19
68712;BME280;55690;51.566;19.198;2023-03-15T19:34:55;101708.97;;;7.05;69.35
68712;BME280;55690;51.566;19.198;2023-03-15T19:39:01;101721.80;;;6.79;70.41
68712;BME280;55690;51.566;19.198;2023-03-15T19:43:07;101721.24;;;6.71;70.05
68712;BME280;55690;51.566;19.198;2023-03-15T19:47:13;101725.20;;;6.62;69.81
68712;BME280;55690;51.566;19.198;2023-03-15T19:51:20;101728.01;;;6.81;69.23
68712;BME280;55690;51.566;19.198;2023-03-15T19:55:26;101732.32;;;6.43;71.04
68712;BME280;55690;51.566;19.198;2023-03-15T19:59:32;101741.54;;;6.38;71.31
68712;BME280;55690;51.566;19.198;2023-03-15T20:03:41;101741.48;;;6.39;70.89
68712;BME280;55690;51.566;19.198;2023-03-15T20:07:45;101744.91;;;6.21;71.30
68712;BME280;55690;51.566;19.198;2023-03-15T20:11:51;101743.84;;;6.25;70.95
68712;BME280;55690;51.566;19.198;2023-03-15T20:15:57;101745.94;;;6.40;70.41
68712;BME280;55690;51.566;19.198;2023-03-15T20:20:04;101753.42;;;6.10;71.20
68712;BME280;55690;51.566;19.198;2023-03-15T20:24:13;101757.74;;;6.14;71.15
68712;BME280;55690;51.566;19.198;2023-03-15T20:28:16;101774.21;;;5.83;71.05
68712;BME280;55690;51.566;19.198;2023-03-15T20:32:22;101756.43;;;6.03;70.33
68712;BME280;55690;51.566;19.198;2023-03-15T20:36:28;101771.69;;;5.79;70.63
68712;BME280;55690;51.566;19.198;2023-03-15T20:40:37;101771.20;;;5.67;71.19
68712;BME280;55690;51.566;19.198;2023-03-15T20:44:40;101778.30;;;5.70;71.49
68712;BME280;55690;51.566;19.198;2023-03-15T20:48:46;101781.36;;;5.84;71.28
68712;BME280;55690;51.566;19.198;2023-03-15T20:52:52;101782.98;;;5.65;72.26
68712;BME280;55690;51.566;19.198;2023-03-15T20:56:59;101782.24;;;5.61;71.96
68712;BME280;55690;51.566;19.198;2023-03-15T21:01:09;101784.98;;;5.60;72.26
68712;BME280;55690;51.566;19.198;2023-03-15T21:05:13;101793.95;;;5.60;72.53
68712;BME280;55690;51.566;19.198;2023-03-15T21:09:17;101798.59;;;5.80;71.11
68712;BME280;55690;51.566;19.198;2023-03-15T21:13:23;101804.26;;;5.73;71.25
68712;BME280;55690;51.566;19.198;2023-03-15T21:17:30;101807.03;;;5.46;71.55
68712;BME280;55690;51.566;19.198;2023-03-15T21:21:36;101809.78;;;5.45;72.33
68712;BME280;55690;51.566;19.198;2023-03-15T21:25:42;101820.76;;;5.63;72.93
68712;BME280;55690;51.566;19.198;2023-03-15T21:29:48;101822.29;;;5.71;72.39
68712;BME280;55690;51.566;19.198;2023-03-15T21:33:54;101820.45;;;5.48;72.88
68712;BME280;55690;51.566;19.198;2023-03-15T21:38:00;101829.67;;;5.41;73.76
68712;BME280;55690;51.566;19.198;2023-03-15T21:42:07;101838.59;;;5.43;73.09
68712;BME280;55690;51.566;19.198;2023-03-15T21:46:13;101840.92;;;5.27;74.14
68712;BME280;55690;51.566;19.198;2023-03-15T21:50:19;101830.26;;;5.24;74.67
68712;BME280;55690;51.566;19.198;2023-03-15T21:54:25;101843.40;;;5.33;74.54
68712;BME280;55690;51.566;19.198;2023-03-15T21:58:31;101847.03;;;5.32;74.69
68712;BME280;55690;51.566;19.198;2023-03-15T22:02:38;101843.40;;;5.33;75.40
68712;BME280;55690;51.566;19.198;2023-03-15T22:06:44;101855.52;;;5.46;74.99
68712;BME280;55690;51.566;19.198;2023-03-15T22:10:54;101851.74;;;5.25;75.00
68712;BME280;55690;51.566;19.198;2023-03-15T22:14:57;101850.55;;;5.34;75.57
68712;BME280;55690;51.566;19.198;2023-03-15T22:19:03;101857.49;;;5.41;75.26
68712;BME280;55690;51.566;19.198;2023-03-15T22:23:08;101863.05;;;5.37;74.59
68712;BME280;55690;51.566;19.198;2023-03-15T22:27:15;101866.56;;;5.39;74.70